This is the latest recevied weather packets stored in our database for station/object DG2HSI-11. If no packets are shown the sender has not sent any weather packets the latest 10 day(s).
| Time | Temp. | Humidity | Pressure | Rain* | Wind** | Luminosity | Snow |
|---|---|---|---|---|---|---|---|
| 1777906750 | 19.44° C | 66% | 1013.9 hPa | - | - | - | - |
| 1777903238 | 16.67° C | 63% | 1014.4 hPa | - | - | - | - |
| 1777897234 | 16.67° C | 63% | 1014.8 hPa | - | - | - | - |
| 1777896033 | 16.67° C | 63% | 1014.8 hPa | - | - | - | - |
| 1777894832 | 16.11° C | 63% | 1014.9 hPa | - | - | - | - |
| 1777893632 | 16.11° C | 63% | 1015 hPa | - | - | - | - |
| 1777892431 | 16.11° C | 63% | 1015 hPa | - | - | - | - |
| 1777890029 | 16.11° C | 63% | 1015.4 hPa | - | - | - | - |
| 1777888828 | 16.11° C | 63% | 1015.4 hPa | - | - | - | - |
| 1777887628 | 16.67° C | 62% | 1015.6 hPa | - | - | - | - |
| 1777886427 | 16.11° C | 62% | 1015.6 hPa | - | - | - | - |
| 1777885226 | 16.11° C | 63% | 1015.8 hPa | - | - | - | - |
| 1777884025 | 16.11° C | 62% | 1015.7 hPa | - | - | - | - |
| 1777882824 | 16.11° C | 62% | 1015.6 hPa | - | - | - | - |
| 1777881620 | 16.11° C | 62% | 1015.6 hPa | - | - | - | - |
| 1777880419 | 16.11° C | 62% | 1015.4 hPa | - | - | - | - |
| 1777879218 | 16.11° C | 61% | 1015.3 hPa | - | - | - | - |
| 1777878017 | 16.11° C | 61% | 1015.1 hPa | - | - | - | - |
| 1777876816 | 15.56° C | 61% | 1015.1 hPa | - | - | - | - |
| 1777875616 | 15.56° C | 61% | 1015.1 hPa | - | - | - | - |
| 1777874415 | 15.56° C | 61% | 1015 hPa | - | - | - | - |
| 1777873214 | 15.56° C | 61% | 1014.8 hPa | - | - | - | - |
| 1777872013 | 16.11° C | 61% | 1014.5 hPa | - | - | - | - |
| 1777870813 | 15.56° C | 61% | 1014.6 hPa | - | - | - | - |
| 1777869612 | 15.56° C | 61% | 1014.4 hPa | - | - | - | - |
* Rain since midnight (hover to see other rain measurements)
** Current wind speed in m/s (hover to see current wind gust speed)